createdAt,value
2017-02-20T00:00:19.643Z,1012.93
2017-02-20T00:01:19.661Z,1012.91
2017-02-20T00:02:19.680Z,1012.91
2017-02-20T00:03:19.695Z,1012.89
2017-02-20T00:04:19.716Z,1012.95
2017-02-20T00:05:19.733Z,1012.91
2017-02-20T00:06:19.755Z,1012.91
2017-02-20T00:07:19.769Z,1012.91
2017-02-20T00:08:19.787Z,1012.87
2017-02-20T00:09:19.808Z,1012.87
2017-02-20T00:10:19.826Z,1012.89
2017-02-20T00:11:19.842Z,1012.9
2017-02-20T00:12:19.863Z,1012.85
2017-02-20T00:13:19.879Z,1012.88
2017-02-20T00:14:19.897Z,1012.94
2017-02-20T00:15:19.917Z,1012.88
2017-02-20T00:16:19.934Z,1012.92
2017-02-20T00:17:19.955Z,1012.89
2017-02-20T00:18:19.969Z,1012.92
2017-02-20T00:19:19.990Z,1012.9
2017-02-20T00:20:20.008Z,1012.92
2017-02-20T00:21:20.026Z,1012.95
2017-02-20T00:22:20.043Z,1012.92
2017-02-20T00:23:20.064Z,1012.93
2017-02-20T00:24:20.083Z,1012.94
2017-02-20T00:25:20.099Z,1012.96
2017-02-20T00:27:20.136Z,1012.89
2017-02-20T00:28:20.157Z,1012.9
2017-02-20T00:29:20.175Z,1012.95
2017-02-20T00:30:20.190Z,1012.93
2017-02-20T00:31:20.212Z,1012.94
2017-02-20T00:32:20.229Z,1012.95
2017-02-20T00:33:20.247Z,1012.92
2017-02-20T00:34:20.267Z,1012.9
2017-02-20T00:35:20.284Z,1012.87
2017-02-20T00:36:20.302Z,1012.81
2017-02-20T00:37:20.320Z,1012.78
2017-02-20T00:38:20.339Z,1012.8
2017-02-20T00:39:20.358Z,1012.79
2017-02-20T00:40:20.375Z,1012.8
2017-02-20T00:41:20.394Z,1012.77
2017-02-20T00:43:20.431Z,1012.76
2017-02-20T00:44:20.449Z,1012.69
2017-02-20T00:45:20.470Z,1012.67
2017-02-20T00:46:20.487Z,1012.68
2017-02-20T00:47:20.507Z,1012.68
2017-02-20T00:48:20.524Z,1012.69
2017-02-20T00:49:20.542Z,1012.7
2017-02-20T00:50:20.561Z,1012.73
2017-02-20T00:51:20.579Z,1012.7
2017-02-20T00:52:20.597Z,1012.66
2017-02-20T00:53:20.616Z,1012.68
2017-02-20T00:54:20.635Z,1012.64
2017-02-20T00:55:20.653Z,1012.64
2017-02-20T00:56:20.674Z,1012.62
2017-02-20T00:57:20.693Z,1012.58
2017-02-20T00:59:20.729Z,1012.65
2017-02-20T01:00:20.748Z,1012.63
2017-02-20T01:01:20.764Z,1012.65
2017-02-20T01:02:20.781Z,1012.63
2017-02-20T01:03:20.803Z,1012.61
2017-02-20T01:04:20.821Z,1012.56
2017-02-20T01:05:20.842Z,1012.55
2017-02-20T01:06:20.858Z,1012.51
2017-02-20T01:07:20.876Z,1012.51
2017-02-20T01:08:20.893Z,1012.45
2017-02-20T01:09:20.913Z,1012.43
2017-02-20T01:10:20.935Z,1012.46
2017-02-20T01:11:20.951Z,1012.49
2017-02-20T01:12:20.970Z,1012.49
2017-02-20T01:13:20.985Z,1012.5
2017-02-20T01:15:21.022Z,1012.56
2017-02-20T01:16:21.041Z,1012.56
2017-02-20T01:17:21.061Z,1012.59
2017-02-20T01:18:21.076Z,1012.52
2017-02-20T01:19:21.097Z,1012.48
2017-02-20T01:20:21.113Z,1012.47
2017-02-20T01:21:21.135Z,1012.47
2017-02-20T01:22:21.151Z,1012.45
2017-02-20T01:23:21.171Z,1012.42
2017-02-20T01:24:21.190Z,1012.42
2017-02-20T01:25:21.205Z,1012.45
2017-02-20T01:26:21.224Z,1012.47
2017-02-20T01:27:21.243Z,1012.45
2017-02-20T01:28:21.265Z,1012.49
2017-02-20T01:30:21.302Z,1012.44
2017-02-20T01:31:21.317Z,1012.43
2017-02-20T01:32:21.338Z,1012.37
2017-02-20T01:33:21.357Z,1012.39
2017-02-20T01:34:21.375Z,1012.34
2017-02-20T01:35:21.391Z,1012.43
2017-02-20T01:36:21.413Z,1012.38
2017-02-20T01:37:21.430Z,1012.38
2017-02-20T01:38:21.446Z,1012.41
2017-02-20T01:39:21.468Z,1012.44
2017-02-20T01:40:21.485Z,1012.4
2017-02-20T01:41:21.502Z,1012.46
2017-02-20T01:42:21.524Z,1012.46
2017-02-20T01:43:21.542Z,1012.45
2017-02-20T01:44:21.559Z,1012.47
2017-02-20T01:45:21.579Z,1012.41
2017-02-20T01:46:21.594Z,1012.44
2017-02-20T01:47:21.612Z,1012.4
2017-02-20T01:48:21.633Z,1012.43
2017-02-20T01:49:21.651Z,1012.42
2017-02-20T01:50:21.668Z,1012.42
2017-02-20T01:51:21.686Z,1012.44
2017-02-20T01:52:21.705Z,1012.44
2017-02-20T01:53:21.723Z,1012.4
2017-02-20T01:54:21.743Z,1012.41
2017-02-20T01:55:21.763Z,1012.39
2017-02-20T01:56:21.779Z,1012.34
2017-02-20T01:57:21.797Z,1012.36
2017-02-20T01:58:21.818Z,1012.36
2017-02-20T01:59:21.833Z,1012.31
2017-02-20T02:00:21.852Z,1012.34
2017-02-20T02:02:21.893Z,1012.33
2017-02-20T02:03:21.908Z,1012.36
2017-02-20T02:04:21.929Z,1012.36
2017-02-20T02:05:21.945Z,1012.34
2017-02-20T02:06:21.967Z,1012.34
2017-02-20T02:07:21.987Z,1012.34
2017-02-20T02:08:21.999Z,1012.33
2017-02-20T02:09:22.019Z,1012.31
2017-02-20T02:10:22.041Z,1012.29
2017-02-20T02:11:22.058Z,1012.3
2017-02-20T02:12:22.073Z,1012.31
2017-02-20T02:13:22.094Z,1012.31
2017-02-20T02:14:22.111Z,1012.28
2017-02-20T02:15:22.130Z,1012.32
2017-02-20T02:16:22.151Z,1012.3
2017-02-20T02:18:22.188Z,1012.32
2017-02-20T02:19:22.202Z,1012.3
2017-02-20T02:20:22.221Z,1012.32
2017-02-20T02:21:22.243Z,1012.28
2017-02-20T02:22:22.257Z,1012.3
2017-02-20T02:23:22.276Z,1012.29
2017-02-20T02:24:22.295Z,1012.29
2017-02-20T02:25:22.315Z,1012.3
2017-02-20T02:26:22.331Z,1012.32
2017-02-20T02:27:22.350Z,1012.21
2017-02-20T02:28:22.369Z,1012.2
2017-02-20T02:29:22.390Z,1012.17
2017-02-20T02:30:22.407Z,1012.17
2017-02-20T02:31:22.426Z,1012.16
2017-02-20T02:32:22.445Z,1012.04
2017-02-20T02:34:22.481Z,1012.02
2017-02-20T02:35:22.500Z,1012.02
2017-02-20T02:36:22.516Z,1011.97
2017-02-20T02:37:22.534Z,1011.96
2017-02-20T02:38:22.553Z,1011.92
2017-02-20T02:39:22.571Z,1011.91
2017-02-20T02:40:22.589Z,1011.89
2017-02-20T02:41:22.609Z,1011.9
2017-02-20T02:42:22.628Z,1011.86
2017-02-20T02:43:22.648Z,1011.88
2017-02-20T02:44:22.663Z,1011.99
2017-02-20T02:45:22.681Z,1011.99
2017-02-20T02:46:22.703Z,1011.97
2017-02-20T02:47:22.721Z,1012
2017-02-20T02:48:22.739Z,1011.97
2017-02-20T02:50:22.774Z,1012.03
2017-02-20T02:51:22.793Z,1012.07
2017-02-20T02:52:22.813Z,1012.07
2017-02-20T02:53:22.829Z,1012.09
2017-02-20T02:54:22.850Z,1012.06
2017-02-20T02:55:22.865Z,1012.08
2017-02-20T02:56:22.884Z,1012.07
2017-02-20T02:57:22.903Z,1012.08
2017-02-20T02:58:22.925Z,1012.15
2017-02-20T02:59:22.942Z,1012.13
2017-02-20T03:00:22.960Z,1012.14
2017-02-20T03:01:22.977Z,1012.17
2017-02-20T03:02:22.995Z,1012.1
2017-02-20T03:03:23.017Z,1012.16
2017-02-20T03:05:23.052Z,1012.14
2017-02-20T03:06:23.073Z,1012.11
2017-02-20T03:07:23.092Z,1012.08
2017-02-20T03:08:23.108Z,1012.03
2017-02-20T03:09:23.428Z,1012.04
2017-02-20T03:10:23.147Z,1012.03
2017-02-20T03:11:23.166Z,1012.04
2017-02-20T03:12:23.181Z,1011.98
2017-02-20T03:13:23.199Z,1012.04
2017-02-20T03:14:23.221Z,1011.96
2017-02-20T03:15:23.238Z,1011.95
2017-02-20T03:16:23.255Z,1011.92
2017-02-20T03:17:23.276Z,1011.85
2017-02-20T03:18:23.291Z,1011.92
2017-02-20T03:19:23.310Z,1011.96
2017-02-20T03:20:23.331Z,1011.96
2017-02-20T03:21:23.348Z,1011.97
2017-02-20T03:22:23.367Z,1012
2017-02-20T03:23:23.384Z,1011.94
2017-02-20T03:24:23.721Z,1011.97
2017-02-20T03:25:23.420Z,1011.99
2017-02-20T03:26:23.441Z,1011.96
2017-02-20T03:27:23.459Z,1011.97
2017-02-20T03:28:23.477Z,1011.98
2017-02-20T03:29:23.493Z,1012
2017-02-20T03:30:23.514Z,1012
2017-02-20T03:31:23.535Z,1012.01
2017-02-20T03:32:23.551Z,1011.97
2017-02-20T03:33:23.568Z,1011.93
2017-02-20T03:34:23.586Z,1011.9
2017-02-20T03:35:23.604Z,1011.88
2017-02-20T03:37:23.641Z,1011.86
2017-02-20T03:38:23.662Z,1011.85
2017-02-20T03:39:23.677Z,1011.84
2017-02-20T03:40:23.697Z,1011.82
2017-02-20T03:41:23.714Z,1011.8
2017-02-20T03:42:23.736Z,1011.81
2017-02-20T03:43:23.751Z,1011.76
2017-02-20T03:44:23.771Z,1011.77
2017-02-20T03:45:23.789Z,1011.77
2017-02-20T03:46:23.807Z,1011.73
2017-02-20T03:47:23.827Z,1011.73
2017-02-20T03:48:23.846Z,1011.73
2017-02-20T03:49:23.864Z,1011.68
2017-02-20T03:50:23.882Z,1011.67
2017-02-20T03:51:23.899Z,1011.67
2017-02-20T03:53:23.935Z,1011.7
2017-02-20T03:54:23.955Z,1011.7
2017-02-20T03:55:23.973Z,1011.72
2017-02-20T03:56:23.991Z,1011.66
2017-02-20T03:57:24.010Z,1011.68
2017-02-20T03:58:24.030Z,1011.66
2017-02-20T03:59:24.049Z,1011.69
2017-02-20T04:00:24.070Z,1011.71
2017-02-20T04:01:24.086Z,1011.67
2017-02-20T04:02:24.102Z,1011.68
2017-02-20T04:03:24.124Z,1011.65
2017-02-20T04:04:24.142Z,1011.69
2017-02-20T04:05:24.159Z,1011.68
2017-02-20T04:06:24.178Z,1011.69
2017-02-20T04:07:24.199Z,1011.66
2017-02-20T04:09:24.232Z,1011.69
2017-02-20T04:10:24.253Z,1011.68
2017-02-20T04:11:24.269Z,1011.67
2017-02-20T04:12:24.289Z,1011.68
2017-02-20T04:13:24.305Z,1011.69
2017-02-20T04:14:24.325Z,1011.64
2017-02-20T04:15:24.344Z,1011.67
2017-02-20T04:16:24.361Z,1011.69
2017-02-20T04:17:24.379Z,1011.66
2017-02-20T04:18:24.398Z,1011.68
2017-02-20T04:19:24.416Z,1011.6
2017-02-20T04:20:24.438Z,1011.59
2017-02-20T04:21:24.455Z,1011.56
2017-02-20T04:22:24.472Z,1011.55
2017-02-20T04:23:24.492Z,1011.55
2017-02-20T04:25:24.530Z,1011.47
2017-02-20T04:26:24.546Z,1011.52
2017-02-20T04:27:24.563Z,1011.48
2017-02-20T04:28:24.582Z,1011.46
2017-02-20T04:29:24.604Z,1011.5
2017-02-20T04:30:24.622Z,1011.5
2017-02-20T04:31:24.639Z,1011.48
2017-02-20T04:32:24.660Z,1011.53
2017-02-20T04:33:24.675Z,1011.5
2017-02-20T04:34:24.696Z,1011.53
2017-02-20T04:35:24.747Z,1011.48
2017-02-20T04:36:24.730Z,1011.5
2017-02-20T04:37:24.749Z,1011.42
2017-02-20T04:38:24.767Z,1011.47
2017-02-20T04:40:24.807Z,1011.5
2017-02-20T04:41:24.825Z,1011.48
2017-02-20T04:42:24.842Z,1011.49
2017-02-20T04:43:24.863Z,1011.47
2017-02-20T04:44:24.880Z,1011.43
2017-02-20T04:45:24.897Z,1011.44
2017-02-20T04:46:24.916Z,1011.42
2017-02-20T04:47:24.935Z,1011.39
2017-02-20T04:48:24.954Z,1011.41
2017-02-20T04:49:24.975Z,1011.38
2017-02-20T04:50:24.989Z,1011.38
2017-02-20T04:51:25.008Z,1011.34
2017-02-20T04:52:25.029Z,1011.35
2017-02-20T04:53:25.046Z,1011.27
2017-02-20T04:54:25.069Z,1011.36
2017-02-20T04:55:25.085Z,1011.28
2017-02-20T04:56:25.100Z,1011.24
2017-02-20T04:57:25.121Z,1011.27
2017-02-20T04:58:25.141Z,1011.29
2017-02-20T04:59:25.158Z,1011.29
2017-02-20T05:00:25.175Z,1011.27
2017-02-20T05:01:25.196Z,1011.31
2017-02-20T05:02:25.215Z,1011.26
2017-02-20T05:03:25.233Z,1011.28
2017-02-20T05:04:25.252Z,1011.22
2017-02-20T05:05:25.268Z,1011.26
2017-02-20T05:06:25.286Z,1011.21
2017-02-20T05:07:25.305Z,1011.18
2017-02-20T05:08:25.327Z,1011.19
2017-02-20T05:09:25.344Z,1011.18
2017-02-20T05:10:25.360Z,1011.17
2017-02-20T05:12:25.398Z,1011.07
2017-02-20T05:13:25.419Z,1011.09
2017-02-20T05:14:25.433Z,1011.07
2017-02-20T05:15:25.454Z,1011.09
2017-02-20T05:16:25.473Z,1011.1
2017-02-20T05:17:25.490Z,1011.1
2017-02-20T05:18:25.510Z,1011.11
2017-02-20T05:19:25.528Z,1011.1
2017-02-20T05:20:25.550Z,1011.1
2017-02-20T05:21:25.565Z,1011.18
2017-02-20T05:22:25.582Z,1011.16
2017-02-20T05:23:25.601Z,1011.18
2017-02-20T05:24:25.621Z,1011.16
2017-02-20T05:25:25.666Z,1011.19
2017-02-20T05:26:25.658Z,1011.21
2017-02-20T05:28:25.693Z,1011.17
2017-02-20T05:29:25.714Z,1011.18
2017-02-20T05:30:25.730Z,1011.14
2017-02-20T05:31:25.751Z,1011.13
2017-02-20T05:32:25.767Z,1011.11
2017-02-20T05:33:25.788Z,1011.09
2017-02-20T05:34:25.804Z,1011.1
2017-02-20T05:35:25.826Z,1011.11
2017-02-20T05:36:25.840Z,1011.11
2017-02-20T05:37:25.859Z,1011.09
2017-02-20T05:38:25.878Z,1011.1
2017-02-20T05:39:25.897Z,1011.09
2017-02-20T05:40:25.914Z,1011.08
2017-02-20T05:41:25.964Z,1011.1
2017-02-20T05:42:25.954Z,1011.05
2017-02-20T05:44:25.988Z,1011.04
2017-02-20T05:45:26.007Z,1010.99
2017-02-20T05:46:26.026Z,1011.02
2017-02-20T05:47:26.047Z,1011.03
2017-02-20T05:48:26.068Z,1011.02
2017-02-20T05:49:26.082Z,1011.02
2017-02-20T05:50:26.102Z,1010.98
2017-02-20T05:51:26.121Z,1010.97
2017-02-20T05:52:26.136Z,1010.93
2017-02-20T05:53:26.157Z,1010.98
2017-02-20T05:54:26.173Z,1010.98
2017-02-20T05:55:26.192Z,1010.93
2017-02-20T05:56:26.210Z,1010.98
2017-02-20T05:57:26.233Z,1010.92
2017-02-20T05:58:26.250Z,1010.95
2017-02-20T06:00:26.288Z,1010.9
2017-02-20T06:01:26.303Z,1010.92
2017-02-20T06:02:26.325Z,1010.86
2017-02-20T06:03:26.340Z,1010.84
2017-02-20T06:04:26.359Z,1010.83
2017-02-20T06:05:26.379Z,1010.84
2017-02-20T06:06:26.398Z,1010.88
2017-02-20T06:07:26.414Z,1010.82
2017-02-20T06:08:26.435Z,1010.76
2017-02-20T06:09:26.452Z,1010.81
2017-02-20T06:10:26.469Z,1010.83
2017-02-20T06:11:26.490Z,1010.78
2017-02-20T06:12:26.509Z,1010.77
2017-02-20T06:13:26.525Z,1010.75
2017-02-20T06:15:26.563Z,1010.75
2017-02-20T06:16:26.584Z,1010.79
2017-02-20T06:17:26.602Z,1010.78
2017-02-20T06:18:26.620Z,1010.77
2017-02-20T06:19:26.636Z,1010.73
2017-02-20T06:20:26.654Z,1010.76
2017-02-20T06:21:26.677Z,1010.77
2017-02-20T06:22:26.692Z,1010.78
2017-02-20T06:23:26.709Z,1010.75
2017-02-20T06:24:26.731Z,1010.74
2017-02-20T06:25:26.747Z,1010.68
2017-02-20T06:26:26.767Z,1010.72
2017-02-20T06:27:26.786Z,1010.8
2017-02-20T06:28:26.802Z,1010.71
2017-02-20T06:29:26.824Z,1010.73
2017-02-20T06:30:26.841Z,1010.73
2017-02-20T06:31:26.858Z,1010.72
2017-02-20T06:32:26.876Z,1010.67
2017-02-20T06:33:26.897Z,1010.66
2017-02-20T06:34:26.916Z,1010.75
2017-02-20T06:35:26.932Z,1010.66
2017-02-20T06:36:26.953Z,1010.69
2017-02-20T06:37:26.969Z,1010.69
2017-02-20T06:38:26.989Z,1010.68
2017-02-20T06:39:27.008Z,1010.65
2017-02-20T06:40:27.025Z,1010.66
2017-02-20T06:41:27.043Z,1010.64
2017-02-20T06:42:27.061Z,1010.71
2017-02-20T06:43:27.084Z,1010.69
2017-02-20T06:44:27.099Z,1010.7
2017-02-20T06:45:27.119Z,1010.72
2017-02-20T06:47:27.157Z,1010.75
2017-02-20T06:48:27.172Z,1010.78
2017-02-20T06:49:27.193Z,1010.73
2017-02-20T06:50:27.213Z,1010.66
2017-02-20T06:51:27.230Z,1010.74
2017-02-20T06:52:27.250Z,1010.74
2017-02-20T06:53:27.267Z,1010.72
2017-02-20T06:54:27.286Z,1010.7
2017-02-20T06:55:27.302Z,1010.68
2017-02-20T06:56:27.320Z,1010.71
2017-02-20T06:57:27.342Z,1010.72
2017-02-20T06:58:27.358Z,1010.71
2017-02-20T06:59:27.377Z,1010.75
2017-02-20T07:00:27.397Z,1010.76
2017-02-20T07:01:27.416Z,1010.77
2017-02-20T07:03:27.453Z,1010.75
2017-02-20T07:04:27.471Z,1010.81
2017-02-20T07:05:27.490Z,1010.79
2017-02-20T07:06:27.507Z,1010.81
2017-02-20T07:07:27.525Z,1010.8
2017-02-20T07:08:27.543Z,1010.82
2017-02-20T07:09:27.565Z,1010.84
2017-02-20T07:10:27.584Z,1010.84
2017-02-20T07:11:27.602Z,1010.82
2017-02-20T07:12:27.617Z,1010.8
2017-02-20T07:13:27.638Z,1010.78
2017-02-20T07:14:27.655Z,1010.81
2017-02-20T07:15:27.673Z,1010.79
2017-02-20T07:16:27.692Z,1010.78
2017-02-20T07:17:27.713Z,1010.72
2017-02-20T07:19:27.747Z,1010.66
2017-02-20T07:20:27.768Z,1010.63
2017-02-20T07:21:27.820Z,1010.6
2017-02-20T07:22:27.804Z,1010.55
2017-02-20T07:23:27.822Z,1010.52
2017-02-20T07:24:27.841Z,1010.52
2017-02-20T07:25:27.864Z,1010.44
2017-02-20T07:26:27.878Z,1010.41
2017-02-20T07:27:27.899Z,1010.39
2017-02-20T07:28:27.916Z,1010.42
2017-02-20T07:29:27.939Z,1010.39
2017-02-20T07:30:27.953Z,1010.34
2017-02-20T07:31:27.972Z,1010.26
2017-02-20T07:32:27.994Z,1010.3
2017-02-20T07:33:28.008Z,1010.28
2017-02-20T07:35:28.047Z,1010.22
2017-02-20T07:36:28.068Z,1010.23
2017-02-20T07:37:28.087Z,1010.29
2017-02-20T07:38:28.103Z,1010.32
2017-02-20T07:39:28.121Z,1010.29
2017-02-20T07:40:28.139Z,1010.32
2017-02-20T07:41:28.160Z,1010.33
2017-02-20T07:42:28.178Z,1010.29
2017-02-20T07:43:28.197Z,1010.25
2017-02-20T07:44:28.217Z,1010.25
2017-02-20T07:45:28.236Z,1010.25
2017-02-20T07:46:28.255Z,1010.26
2017-02-20T07:47:28.274Z,1010.24
2017-02-20T07:48:28.291Z,1010.26
2017-02-20T07:50:28.332Z,1010.26
2017-02-20T07:51:28.347Z,1010.24
2017-02-20T07:52:28.370Z,1010.2
2017-02-20T07:53:28.385Z,1010.23
2017-02-20T07:54:28.407Z,1010.2
2017-02-20T07:55:28.425Z,1010.08
2017-02-20T07:56:28.444Z,1010.06
2017-02-20T07:57:28.461Z,1010.09
2017-02-20T07:58:28.480Z,1010.08
2017-02-20T07:59:28.499Z,1010.19
2017-02-20T08:00:28.521Z,1010.2
2017-02-20T08:01:28.539Z,1010.2
2017-02-20T08:02:28.555Z,1010.21
2017-02-20T08:03:28.578Z,1010.18
2017-02-20T08:04:28.596Z,1010.13
2017-02-20T08:05:28.616Z,1010.11
2017-02-20T08:06:28.631Z,1010.14
2017-02-20T08:07:28.652Z,1010.16
2017-02-20T08:08:28.672Z,1010.13
2017-02-20T08:09:28.689Z,1010.15
2017-02-20T08:10:28.709Z,1010.15
2017-02-20T08:11:28.728Z,1010.13
2017-02-20T08:12:28.745Z,1010.07
2017-02-20T08:13:28.767Z,1010.05
2017-02-20T08:14:28.785Z,1009.97
2017-02-20T08:15:28.805Z,1009.98
2017-02-20T08:16:28.821Z,1009.94
2017-02-20T08:17:28.844Z,1009.97
2017-02-20T08:18:28.862Z,1009.91
2017-02-20T08:19:28.881Z,1009.82
2017-02-20T08:20:28.896Z,1009.83
2017-02-20T08:22:28.935Z,1009.86
2017-02-20T08:23:29.006Z,1009.81
2017-02-20T08:24:28.976Z,1009.84
2017-02-20T08:25:28.992Z,1009.84
2017-02-20T08:26:29.014Z,1009.79
2017-02-20T08:27:29.032Z,1009.87
2017-02-20T08:28:29.048Z,1009.86
2017-02-20T08:29:29.071Z,1009.9
2017-02-20T08:30:29.088Z,1009.9
2017-02-20T08:31:29.108Z,1009.86
2017-02-20T08:32:29.126Z,1009.8
2017-02-20T08:33:29.147Z,1009.81
2017-02-20T08:34:29.164Z,1009.74
2017-02-20T08:35:29.185Z,1009.75
2017-02-20T08:36:29.203Z,1009.73
2017-02-20T08:38:29.244Z,1009.75
2017-02-20T08:39:29.264Z,1009.68
2017-02-20T08:40:29.283Z,1009.78
2017-02-20T08:41:29.300Z,1009.67
2017-02-20T08:42:29.318Z,1009.68
2017-02-20T08:43:29.341Z,1009.63
2017-02-20T08:44:29.357Z,1009.59
2017-02-20T08:45:29.379Z,1009.64
2017-02-20T08:46:29.396Z,1009.59
2017-02-20T08:47:29.416Z,1009.6
2017-02-20T08:48:29.435Z,1009.57
2017-02-20T08:49:29.458Z,1009.6
2017-02-20T08:50:29.473Z,1009.55
2017-02-20T08:51:29.493Z,1009.53
2017-02-20T08:52:29.513Z,1009.55
2017-02-20T08:54:29.552Z,1009.53
2017-02-20T08:55:29.572Z,1009.53
2017-02-20T08:56:29.594Z,1009.54
2017-02-20T08:57:29.610Z,1009.54
2017-02-20T08:58:29.631Z,1009.54
2017-02-20T08:59:29.650Z,1009.48
2017-02-20T09:00:29.670Z,1009.51
2017-02-20T09:01:29.689Z,1009.42
2017-02-20T09:02:29.711Z,1009.48
2017-02-20T09:03:29.731Z,1009.47
2017-02-20T09:04:29.749Z,1009.35
2017-02-20T09:05:29.769Z,1009.37
2017-02-20T09:06:29.787Z,1009.32
2017-02-20T09:07:29.807Z,1009.25
2017-02-20T09:08:29.829Z,1009.3
2017-02-20T09:10:29.865Z,1009.35
2017-02-20T09:11:29.891Z,1009.33
2017-02-20T09:12:29.907Z,1009.27
2017-02-20T09:13:29.924Z,1009.2
2017-02-20T09:14:29.947Z,1009.23
2017-02-20T09:15:29.963Z,1009.23
2017-02-20T09:16:29.982Z,1009.3
2017-02-20T09:17:30.004Z,1009.21
2017-02-20T09:18:30.024Z,1009.25
2017-02-20T09:19:30.043Z,1009.26
2017-02-20T09:20:30.063Z,1009.18
2017-02-20T09:21:30.081Z,1009.18
2017-02-20T09:22:30.103Z,1008.97
2017-02-20T09:23:30.122Z,1009.15
2017-02-20T09:25:30.161Z,1009.18
2017-02-20T09:26:30.184Z,1009.04
2017-02-20T09:27:30.201Z,1009.04
2017-02-20T09:28:30.224Z,1009.04
2017-02-20T09:29:30.242Z,1009.06
2017-02-20T09:30:30.261Z,1009.03
2017-02-20T09:31:30.281Z,1009.02
2017-02-20T09:32:30.303Z,1009.13
2017-02-20T09:33:30.323Z,1009.11
2017-02-20T09:34:30.343Z,1008.93
2017-02-20T09:35:30.366Z,1008.95
2017-02-20T09:36:30.381Z,1008.99
2017-02-20T09:37:30.429Z,1008.95
2017-02-20T09:38:30.421Z,1009.05
2017-02-20T09:39:30.441Z,1008.97
2017-02-20T09:40:30.462Z,1008.98
2017-02-20T09:41:30.483Z,1009.02
2017-02-20T09:42:30.504Z,1008.98
2017-02-20T09:43:30.524Z,1008.96
2017-02-20T09:44:30.541Z,1008.97
2017-02-20T09:45:30.561Z,1008.95
2017-02-20T09:46:30.582Z,1008.96
2017-02-20T09:47:30.604Z,1008.94
2017-02-20T09:48:30.624Z,1008.88
2017-02-20T09:49:30.642Z,1008.87
2017-02-20T09:50:30.664Z,1008.83
2017-02-20T09:51:30.684Z,1008.81
2017-02-20T09:52:30.705Z,1008.81
2017-02-20T09:53:30.724Z,1008.74
2017-02-20T09:54:30.743Z,1008.78
2017-02-20T09:55:30.765Z,1008.64
2017-02-20T09:57:30.802Z,1008.74
2017-02-20T09:58:30.823Z,1008.78
2017-02-20T09:59:30.842Z,1008.79
2017-02-20T10:00:30.862Z,1008.75
2017-02-20T10:01:30.886Z,1008.77
2017-02-20T10:02:30.905Z,1008.75
2017-02-20T10:03:31.326Z,1008.72
2017-02-20T10:04:30.946Z,1008.72
2017-02-20T10:05:30.966Z,1008.75
2017-02-20T10:06:30.983Z,1008.8
2017-02-20T10:07:31.006Z,1008.77
2017-02-20T10:08:31.026Z,1008.66
2017-02-20T10:09:31.044Z,1008.74
2017-02-20T10:10:31.063Z,1008.76
2017-02-20T10:11:31.085Z,1008.75
2017-02-20T10:13:31.126Z,1008.74
2017-02-20T10:14:31.144Z,1008.78
2017-02-20T10:15:31.165Z,1008.76
2017-02-20T10:16:31.185Z,1008.83
2017-02-20T10:17:31.207Z,1008.84
2017-02-20T10:18:31.227Z,1008.68
2017-02-20T10:19:31.247Z,1008.7
2017-02-20T10:20:31.266Z,1008.71
2017-02-20T10:21:31.285Z,1008.66
2017-02-20T10:22:31.307Z,1008.62
2017-02-20T10:23:31.326Z,1008.64
2017-02-20T10:24:31.349Z,1008.62
2017-02-20T10:25:31.369Z,1008.59
2017-02-20T10:26:31.385Z,1008.53
2017-02-20T10:27:31.409Z,1008.58
2017-02-20T10:29:31.447Z,1008.55
2017-02-20T10:30:31.470Z,1008.54
2017-02-20T10:31:31.488Z,1008.5
2017-02-20T10:32:31.509Z,1008.46
2017-02-20T10:33:31.531Z,1008.48
2017-02-20T10:34:31.551Z,1008.51
2017-02-20T10:35:31.569Z,1008.47
2017-02-20T10:36:31.592Z,1008.41
2017-02-20T10:37:31.613Z,1008.29
2017-02-20T10:38:31.630Z,1008.34
2017-02-20T10:39:31.650Z,1008.38
2017-02-20T10:40:31.672Z,1008.35
2017-02-20T10:41:31.691Z,1008.29
2017-02-20T10:42:31.714Z,1008.25
2017-02-20T10:43:31.755Z,1008.21
2017-02-20T10:45:31.772Z,1008.2
2017-02-20T10:46:31.793Z,1008.06
2017-02-20T10:47:31.817Z,1008.11
2017-02-20T10:48:31.834Z,1008
2017-02-20T10:49:31.859Z,1008.07
2017-02-20T10:50:31.878Z,1008.06
2017-02-20T10:51:31.899Z,1008.01
2017-02-20T10:52:31.919Z,1007.97
2017-02-20T10:53:31.939Z,1007.94
2017-02-20T10:54:31.961Z,1008.01
2017-02-20T10:55:31.978Z,1007.9
2017-02-20T10:56:31.999Z,1007.88
2017-02-20T10:57:32.020Z,1007.88
2017-02-20T10:58:32.041Z,1007.84
2017-02-20T11:00:32.087Z,1007.81
2017-02-20T11:01:32.105Z,1007.87
2017-02-20T11:02:32.124Z,1007.86
2017-02-20T11:03:32.147Z,1007.86
2017-02-20T11:04:32.166Z,1007.88
2017-02-20T11:05:32.188Z,1007.81
2017-02-20T11:06:32.211Z,1007.78
2017-02-20T11:07:32.231Z,1007.76
2017-02-20T11:08:32.248Z,1007.7
2017-02-20T11:09:32.274Z,1007.68
2017-02-20T11:10:32.294Z,1007.64
2017-02-20T11:11:32.312Z,1007.66
2017-02-20T11:12:32.332Z,1007.69
2017-02-20T11:13:32.353Z,1007.6
2017-02-20T11:14:32.374Z,1007.51
2017-02-20T11:15:32.399Z,1007.51
2017-02-20T11:16:32.416Z,1007.48
2017-02-20T11:17:32.438Z,1007.45
2017-02-20T11:18:32.458Z,1007.44
2017-02-20T11:19:32.478Z,1007.38
2017-02-20T11:20:32.503Z,1007.45
2017-02-20T11:21:32.522Z,1007.37
2017-02-20T11:22:32.543Z,1007.3
2017-02-20T11:23:32.565Z,1007.43
2017-02-20T11:24:32.583Z,1007.3
2017-02-20T11:25:32.606Z,1007.37
2017-02-20T11:26:32.625Z,1007.4
2017-02-20T11:27:32.648Z,1007.37
2017-02-20T11:28:32.667Z,1007.4
2017-02-20T11:29:32.688Z,1007.44
2017-02-20T11:30:32.708Z,1007.4
2017-02-20T11:32:32.751Z,1007.3
2017-02-20T11:33:32.774Z,1007.31
2017-02-20T11:34:32.796Z,1007.29
2017-02-20T11:35:32.815Z,1007.28
2017-02-20T11:36:32.839Z,1007.27
2017-02-20T11:37:32.860Z,1007.18
2017-02-20T11:38:32.878Z,1007.13
2017-02-20T11:39:32.902Z,1007.17
2017-02-20T11:40:32.921Z,1007.24
2017-02-20T11:41:32.941Z,1007.13
2017-02-20T11:42:32.963Z,1007.18
2017-02-20T11:43:32.987Z,1007.17
2017-02-20T11:44:33.008Z,1007.14
2017-02-20T11:45:33.030Z,1007.2
2017-02-20T11:46:33.049Z,1007.07
2017-02-20T11:48:33.091Z,1007.11
2017-02-20T11:49:33.111Z,1007.12
2017-02-20T11:50:33.135Z,1007.06
2017-02-20T11:51:33.156Z,1007.02
2017-02-20T11:52:33.174Z,1007.07
2017-02-20T11:53:33.196Z,1007.06
2017-02-20T11:54:33.219Z,1007.07
2017-02-20T11:55:33.240Z,1007.06
2017-02-20T11:56:33.284Z,1007.01
2017-02-20T11:57:33.282Z,1006.97
2017-02-20T11:58:33.302Z,1006.99
2017-02-20T11:59:33.323Z,1006.9
2017-02-20T12:00:33.345Z,1006.81
2017-02-20T12:01:33.367Z,1006.84
2017-02-20T12:02:33.388Z,1006.85
2017-02-20T12:04:33.431Z,1006.81
2017-02-20T12:05:33.448Z,1006.78
2017-02-20T12:06:33.472Z,1006.8
2017-02-20T12:07:33.492Z,1006.68
2017-02-20T12:08:33.513Z,1006.6
2017-02-20T12:09:33.534Z,1006.74
2017-02-20T12:10:33.556Z,1006.67
2017-02-20T12:11:33.576Z,1006.65
2017-02-20T12:12:33.595Z,1006.65
2017-02-20T12:13:33.616Z,1006.63
2017-02-20T12:14:33.639Z,1006.53
2017-02-20T12:15:33.657Z,1006.57
2017-02-20T12:16:33.678Z,1006.56
2017-02-20T12:17:33.699Z,1006.58
2017-02-20T12:18:33.722Z,1006.57
2017-02-20T12:20:33.764Z,1006.53
2017-02-20T12:21:33.786Z,1006.49
2017-02-20T12:22:33.804Z,1006.54
2017-02-20T12:23:33.826Z,1006.47
2017-02-20T12:24:33.847Z,1006.5
2017-02-20T12:25:33.868Z,1006.43
2017-02-20T12:26:33.888Z,1006.37
2017-02-20T12:27:33.907Z,1006.38
2017-02-20T12:28:33.929Z,1006.38
2017-02-20T12:29:33.950Z,1006.33
2017-02-20T12:30:33.969Z,1006.32
2017-02-20T12:31:33.992Z,1006.3
2017-02-20T12:32:34.011Z,1006.28
2017-02-20T12:33:34.032Z,1006.25
2017-02-20T12:35:34.074Z,1006.17
2017-02-20T12:36:34.094Z,1006.22
2017-02-20T12:37:34.116Z,1006.09
2017-02-20T12:38:34.140Z,1006.13
2017-02-20T12:39:34.159Z,1006.17
2017-02-20T12:40:34.179Z,1006.03
2017-02-20T12:41:34.201Z,1006.08
2017-02-20T12:42:34.219Z,1006.03
2017-02-20T12:43:34.241Z,1005.91
2017-02-20T12:44:34.260Z,1006.02
2017-02-20T12:45:34.282Z,1005.99
2017-02-20T12:46:34.303Z,1005.92
2017-02-20T12:47:34.322Z,1005.92
2017-02-20T12:48:34.343Z,1005.85